createdAt,value
2023-08-15T00:00:10.139Z,20.74
2023-08-15T00:00:48.876Z,20.74
2023-08-15T00:01:35.120Z,20.73
2023-08-15T00:02:08.308Z,20.73
2023-08-15T00:02:41.493Z,20.72
2023-08-15T00:03:14.763Z,20.72
2023-08-15T00:03:48.146Z,20.71
2023-08-15T00:04:21.268Z,20.70
2023-08-15T00:04:54.421Z,20.70
2023-08-15T00:05:27.575Z,20.70
2023-08-15T00:06:00.744Z,20.68
2023-08-15T00:06:33.788Z,20.69
2023-08-15T00:07:06.901Z,20.68
2023-08-15T00:07:39.966Z,20.67
2023-08-15T00:08:13.093Z,20.67
2023-08-15T00:08:46.145Z,20.66
2023-08-15T00:09:19.258Z,20.66
2023-08-15T00:09:52.383Z,20.66
2023-08-15T00:10:25.384Z,20.65
2023-08-15T00:10:58.338Z,20.64
2023-08-15T00:11:31.424Z,20.64
2023-08-15T00:12:04.639Z,20.63
2023-08-15T00:12:37.637Z,20.63
2023-08-15T00:13:10.862Z,20.63
2023-08-15T00:13:43.908Z,20.62
2023-08-15T00:14:17.415Z,20.61
2023-08-15T00:14:50.523Z,20.61
2023-08-15T00:15:23.568Z,20.60
2023-08-15T00:15:56.644Z,20.59
2023-08-15T00:16:29.744Z,20.59
2023-08-15T00:17:03.139Z,20.58
2023-08-15T00:17:36.484Z,20.57
2023-08-15T00:18:09.683Z,20.57
2023-08-15T00:18:43.429Z,20.57
2023-08-15T00:19:16.760Z,20.56
2023-08-15T00:19:50.038Z,20.55
2023-08-15T00:20:23.124Z,20.54
2023-08-15T00:20:56.186Z,20.54
2023-08-15T00:21:29.299Z,20.53
2023-08-15T00:22:02.268Z,20.52
2023-08-15T00:22:35.288Z,20.52
2023-08-15T00:23:08.502Z,20.51
2023-08-15T00:23:41.624Z,20.51
2023-08-15T00:24:14.647Z,20.51
2023-08-15T00:24:47.580Z,20.49
2023-08-15T00:25:20.611Z,20.49
2023-08-15T00:25:53.661Z,20.48
2023-08-15T00:26:26.807Z,20.48
2023-08-15T00:26:59.809Z,20.47
2023-08-15T00:27:32.822Z,20.47
2023-08-15T00:28:06.189Z,20.46
2023-08-15T00:28:39.245Z,20.46
2023-08-15T00:29:12.367Z,20.46
2023-08-15T00:29:45.434Z,20.44
2023-08-15T00:30:18.456Z,20.44
2023-08-15T00:30:51.802Z,20.44
2023-08-15T00:31:24.893Z,20.43
2023-08-15T00:31:58.104Z,20.42
2023-08-15T00:32:33.150Z,20.42
2023-08-15T00:33:06.275Z,20.41
2023-08-15T00:33:39.318Z,20.41
2023-08-15T00:34:12.478Z,20.40
2023-08-15T00:34:45.948Z,20.40
2023-08-15T00:35:19.002Z,20.39
2023-08-15T00:35:52.068Z,20.39
2023-08-15T00:36:25.117Z,20.39
2023-08-15T00:36:58.371Z,20.38
2023-08-15T00:37:32.947Z,20.38
2023-08-15T00:38:06.044Z,20.38
2023-08-15T00:38:39.350Z,20.38
2023-08-15T00:39:12.424Z,20.36
2023-08-15T00:39:45.568Z,20.36
2023-08-15T00:40:18.863Z,20.37
2023-08-15T00:40:52.533Z,20.36
2023-08-15T00:41:25.623Z,20.36
2023-08-15T00:41:58.681Z,20.35
2023-08-15T00:42:32.094Z,20.35
2023-08-15T00:43:05.134Z,20.36
2023-08-15T00:43:38.208Z,20.35
2023-08-15T00:44:11.241Z,20.34
2023-08-15T00:44:45.407Z,20.34
2023-08-15T00:45:18.549Z,20.33
2023-08-15T00:45:52.033Z,20.32
2023-08-15T00:46:26.064Z,20.31
2023-08-15T00:46:59.099Z,20.31
2023-08-15T00:47:32.368Z,20.30
2023-08-15T00:48:06.650Z,20.29
2023-08-15T00:48:39.776Z,20.27
2023-08-15T00:49:12.850Z,20.26
2023-08-15T00:49:46.491Z,20.25
2023-08-15T00:50:19.793Z,20.24
2023-08-15T00:50:52.914Z,20.23
2023-08-15T00:51:26.700Z,20.21
2023-08-15T00:51:59.796Z,20.21
2023-08-15T00:52:32.871Z,20.20
2023-08-15T00:53:06.461Z,20.19
2023-08-15T00:53:39.543Z,20.18
2023-08-15T00:54:12.632Z,20.17
2023-08-15T00:54:47.595Z,20.16
2023-08-15T00:55:20.891Z,20.14
2023-08-15T00:55:55.610Z,20.13
2023-08-15T00:56:28.623Z,20.12
2023-08-15T00:57:03.157Z,20.12
2023-08-15T00:57:36.118Z,20.10
2023-08-15T00:58:09.544Z,20.10
2023-08-15T00:58:43.556Z,20.09
2023-08-15T00:59:16.758Z,20.09
2023-08-15T00:59:49.977Z,20.08
2023-08-15T01:00:23.407Z,20.07
2023-08-15T01:00:56.658Z,20.06
2023-08-15T01:01:31.193Z,20.06
2023-08-15T01:02:04.488Z,20.05
2023-08-15T01:02:37.873Z,20.05
2023-08-15T01:03:11.302Z,20.05
2023-08-15T01:03:44.854Z,20.04
2023-08-15T01:04:18.431Z,20.04
2023-08-15T01:04:51.593Z,20.04
2023-08-15T01:05:25.105Z,20.04
2023-08-15T01:05:58.122Z,20.03
2023-08-15T01:06:31.156Z,20.03
2023-08-15T01:07:04.207Z,20.03
2023-08-15T01:07:37.305Z,20.03
2023-08-15T01:08:10.530Z,20.03
2023-08-15T01:08:43.699Z,20.03
2023-08-15T01:09:16.856Z,20.02
2023-08-15T01:09:50.001Z,20.02
2023-08-15T01:10:23.097Z,20.01
2023-08-15T01:10:56.243Z,20.01
2023-08-15T01:11:34.152Z,20.01
2023-08-15T01:12:25.798Z,20.01
2023-08-15T01:12:58.858Z,20.02
2023-08-15T01:13:35.041Z,20.02
2023-08-15T01:14:11.010Z,20.02
2023-08-15T01:15:01.270Z,20.01
2023-08-15T01:15:37.441Z,20.02
2023-08-15T01:16:15.062Z,20.02
2023-08-15T01:16:50.415Z,20.02
2023-08-15T01:17:30.185Z,20.02
2023-08-15T01:18:16.574Z,20.01
2023-08-15T01:18:52.993Z,20.03
2023-08-15T01:19:40.741Z,20.02
2023-08-15T01:20:15.650Z,20.03
2023-08-15T01:20:49.991Z,20.03
2023-08-15T01:21:26.458Z,20.02
2023-08-15T01:22:00.507Z,20.02
2023-08-15T01:22:33.933Z,20.02
2023-08-15T01:23:08.827Z,20.02
2023-08-15T01:23:45.760Z,20.02
2023-08-15T01:24:19.358Z,20.01
2023-08-15T01:24:52.795Z,20.02
2023-08-15T01:25:26.815Z,20.01
2023-08-15T01:25:59.878Z,20.00
2023-08-15T01:26:32.967Z,20.01
2023-08-15T01:27:06.025Z,20.01
2023-08-15T01:27:39.208Z,20.01
2023-08-15T01:28:16.146Z,20.01
2023-08-15T01:28:49.244Z,20.00
2023-08-15T01:29:22.230Z,20.00
2023-08-15T01:29:56.844Z,20.00
2023-08-15T01:30:29.964Z,20.00
2023-08-15T01:31:02.954Z,20.00
2023-08-15T01:31:36.032Z,20.00
2023-08-15T01:32:23.430Z,20.00
2023-08-15T01:32:59.326Z,20.00
2023-08-15T01:33:38.221Z,20.00
2023-08-15T01:34:18.987Z,19.99
2023-08-15T01:34:57.329Z,19.99
2023-08-15T01:35:51.573Z,19.99
2023-08-15T01:36:29.518Z,20.00
2023-08-15T01:37:04.921Z,19.99
2023-08-15T01:37:41.584Z,19.98
2023-08-15T01:38:27.927Z,19.98
2023-08-15T01:39:02.044Z,19.99
2023-08-15T01:39:36.242Z,19.97
2023-08-15T01:40:11.169Z,19.97
2023-08-15T01:40:45.583Z,19.97
2023-08-15T01:41:20.888Z,19.94
2023-08-15T01:41:55.072Z,19.94
2023-08-15T01:42:28.905Z,19.93
2023-08-15T01:43:03.853Z,19.92
2023-08-15T01:43:37.860Z,19.92
2023-08-15T01:44:12.260Z,19.91
2023-08-15T01:44:45.804Z,19.91
2023-08-15T01:45:18.899Z,19.90
2023-08-15T01:45:52.545Z,19.90
2023-08-15T01:46:25.629Z,19.89
2023-08-15T01:46:59.241Z,19.89
2023-08-15T01:47:33.764Z,19.88
2023-08-15T01:48:07.661Z,19.88
2023-08-15T01:48:44.537Z,19.87
2023-08-15T01:49:17.539Z,19.87
2023-08-15T01:49:50.632Z,19.86
2023-08-15T01:50:23.696Z,19.86
2023-08-15T01:50:56.621Z,19.85
2023-08-15T01:51:29.775Z,19.85
2023-08-15T01:52:02.902Z,19.83
2023-08-15T01:52:36.709Z,19.83
2023-08-15T01:53:09.759Z,19.82
2023-08-15T01:53:42.732Z,19.81
2023-08-15T01:54:17.167Z,19.81
2023-08-15T01:54:50.189Z,19.80
2023-08-15T01:55:23.171Z,19.79
2023-08-15T01:55:56.053Z,19.79
2023-08-15T01:56:29.036Z,19.78
2023-08-15T01:57:02.043Z,19.77
2023-08-15T01:57:35.231Z,19.77
2023-08-15T01:58:08.282Z,19.76
2023-08-15T01:58:41.375Z,19.77
2023-08-15T01:59:14.389Z,19.75
2023-08-15T01:59:47.647Z,19.75
2023-08-15T02:00:20.759Z,19.74
2023-08-15T02:00:53.774Z,19.73
2023-08-15T02:01:26.924Z,19.72
2023-08-15T02:01:59.972Z,19.72
2023-08-15T02:02:33.038Z,19.71
2023-08-15T02:03:06.091Z,19.70
2023-08-15T02:03:39.330Z,19.71
2023-08-15T02:04:12.477Z,19.70
2023-08-15T02:04:45.480Z,19.69
2023-08-15T02:05:18.664Z,19.69
2023-08-15T02:05:51.669Z,19.68
2023-08-15T02:06:24.886Z,19.67
2023-08-15T02:06:57.921Z,19.66
2023-08-15T02:07:30.971Z,19.66
2023-08-15T02:08:04.107Z,19.65
2023-08-15T02:08:37.207Z,19.65
2023-08-15T02:09:10.675Z,19.64
2023-08-15T02:09:43.627Z,19.64
2023-08-15T02:10:16.628Z,19.64
2023-08-15T02:10:49.973Z,19.62
2023-08-15T02:11:22.987Z,19.62
2023-08-15T02:11:55.916Z,19.61
2023-08-15T02:12:28.847Z,19.61
2023-08-15T02:13:01.980Z,19.60
2023-08-15T02:13:35.288Z,19.59
2023-08-15T02:14:08.334Z,19.58
2023-08-15T02:14:41.423Z,19.57
2023-08-15T02:15:15.436Z,19.57
2023-08-15T02:15:48.744Z,19.56
2023-08-15T02:16:21.827Z,19.54
2023-08-15T02:16:54.952Z,19.55
2023-08-15T02:17:27.983Z,19.54
2023-08-15T02:18:01.057Z,19.53
2023-08-15T02:18:34.119Z,19.52
2023-08-15T02:19:07.176Z,19.51
2023-08-15T02:19:40.254Z,19.51
2023-08-15T02:20:13.247Z,19.51
2023-08-15T02:20:46.318Z,19.50
2023-08-15T02:21:19.240Z,19.48
2023-08-15T02:21:52.682Z,19.48
2023-08-15T02:22:25.774Z,19.47
2023-08-15T02:22:58.834Z,19.47
2023-08-15T02:23:31.892Z,19.46
2023-08-15T02:24:05.210Z,19.45
2023-08-15T02:24:38.230Z,19.45
2023-08-15T02:25:11.384Z,19.45
2023-08-15T02:25:44.437Z,19.43
2023-08-15T02:26:17.487Z,19.42
2023-08-15T02:26:50.558Z,19.42
2023-08-15T02:27:23.529Z,19.41
2023-08-15T02:27:56.587Z,19.40
2023-08-15T02:28:29.782Z,19.39
2023-08-15T02:29:04.485Z,19.38
2023-08-15T02:29:37.606Z,19.38
2023-08-15T02:30:10.841Z,19.36
2023-08-15T02:30:44.222Z,19.36
2023-08-15T02:31:17.321Z,19.34
2023-08-15T02:31:50.442Z,19.33
2023-08-15T02:32:23.444Z,19.32
2023-08-15T02:32:56.625Z,19.32
2023-08-15T02:33:29.857Z,19.31
2023-08-15T02:34:02.857Z,19.29
2023-08-15T02:34:35.832Z,19.29
2023-08-15T02:35:09.294Z,19.28
2023-08-15T02:35:42.906Z,19.27
2023-08-15T02:36:15.979Z,19.26
2023-08-15T02:36:49.145Z,19.25
2023-08-15T02:37:22.421Z,19.24
2023-08-15T02:37:55.666Z,19.23
2023-08-15T02:38:28.728Z,19.22
2023-08-15T02:39:01.823Z,19.21
2023-08-15T02:39:34.934Z,19.20
2023-08-15T02:40:10.078Z,19.19
2023-08-15T02:40:43.477Z,19.17
2023-08-15T02:41:16.613Z,19.16
2023-08-15T02:41:49.607Z,19.15
2023-08-15T02:42:22.661Z,19.14
2023-08-15T02:42:55.675Z,19.13
2023-08-15T02:43:28.626Z,19.13
2023-08-15T02:44:02.010Z,19.12
2023-08-15T02:44:35.189Z,19.12
2023-08-15T02:45:08.602Z,19.11
2023-08-15T02:45:41.742Z,19.11
2023-08-15T02:46:14.815Z,19.10
2023-08-15T02:46:47.945Z,19.10
2023-08-15T02:47:21.249Z,19.10
2023-08-15T02:47:54.695Z,19.11
2023-08-15T02:48:28.212Z,19.10
2023-08-15T02:49:01.620Z,19.10
2023-08-15T02:49:34.589Z,19.10
2023-08-15T02:50:08.010Z,19.09
2023-08-15T02:50:41.076Z,19.10
2023-08-15T02:51:14.124Z,19.10
2023-08-15T02:51:47.119Z,19.09
2023-08-15T02:52:20.097Z,19.09
2023-08-15T02:52:53.117Z,19.09
2023-08-15T02:53:26.190Z,19.08
2023-08-15T02:53:59.219Z,19.08
2023-08-15T02:54:32.310Z,19.08
2023-08-15T02:55:05.732Z,19.08
2023-08-15T02:55:38.826Z,19.07
2023-08-15T02:56:11.870Z,19.06
2023-08-15T02:56:44.844Z,19.06
2023-08-15T02:57:17.942Z,19.06
2023-08-15T02:57:50.921Z,19.06
2023-08-15T02:58:23.994Z,19.06
2023-08-15T02:58:57.060Z,19.06
2023-08-15T02:59:30.187Z,19.05
2023-08-15T03:00:03.857Z,19.04
2023-08-15T03:00:37.562Z,19.05
2023-08-15T03:01:10.656Z,19.04
2023-08-15T03:01:43.791Z,19.04
2023-08-15T03:02:17.819Z,19.04
2023-08-15T03:02:51.068Z,19.03
2023-08-15T03:03:24.164Z,19.03
2023-08-15T03:03:57.404Z,19.02
2023-08-15T03:04:31.070Z,19.02
2023-08-15T03:05:04.882Z,19.03
2023-08-15T03:05:38.686Z,19.02
2023-08-15T03:06:11.908Z,19.02
2023-08-15T03:06:45.759Z,19.02
2023-08-15T03:07:19.061Z,19.01
2023-08-15T03:07:52.366Z,19.01
2023-08-15T03:08:25.378Z,19.01
2023-08-15T03:08:59.077Z,19.01
2023-08-15T03:09:32.167Z,19.01
2023-08-15T03:10:05.356Z,19.00
2023-08-15T03:10:40.633Z,19.00
2023-08-15T03:11:13.727Z,18.98
2023-08-15T03:11:46.895Z,18.99
2023-08-15T03:12:19.991Z,18.98
2023-08-15T03:12:53.042Z,18.98
2023-08-15T03:13:26.396Z,18.98
2023-08-15T03:14:02.277Z,18.98
2023-08-15T03:14:35.623Z,18.97
2023-08-15T03:15:08.800Z,18.96
2023-08-15T03:15:41.927Z,18.96
2023-08-15T03:16:15.059Z,18.96
2023-08-15T03:16:48.224Z,18.95
2023-08-15T03:17:23.648Z,18.95
2023-08-15T03:17:58.757Z,18.96
2023-08-15T03:18:32.056Z,18.95
2023-08-15T03:19:05.037Z,18.94
2023-08-15T03:19:39.102Z,18.93
2023-08-15T03:20:13.495Z,18.93
2023-08-15T03:20:55.795Z,18.93
2023-08-15T03:21:28.991Z,18.91
2023-08-15T03:22:02.609Z,18.92
2023-08-15T03:22:35.655Z,18.91
2023-08-15T03:23:08.934Z,18.90
2023-08-15T03:23:42.057Z,18.89
2023-08-15T03:24:16.804Z,18.88
2023-08-15T03:24:49.842Z,18.88
2023-08-15T03:25:23.073Z,18.87
2023-08-15T03:26:03.202Z,18.85
2023-08-15T03:26:37.343Z,18.85
2023-08-15T03:27:10.536Z,18.85
2023-08-15T03:27:43.546Z,18.85
2023-08-15T03:28:16.568Z,18.84
2023-08-15T03:28:49.599Z,18.84
2023-08-15T03:29:22.795Z,18.84
2023-08-15T03:29:55.796Z,18.83
2023-08-15T03:30:28.993Z,18.83
2023-08-15T03:31:06.291Z,18.83
2023-08-15T03:31:39.413Z,18.82
2023-08-15T03:32:12.560Z,18.82
2023-08-15T03:32:45.749Z,18.82
2023-08-15T03:33:18.980Z,18.82
2023-08-15T03:33:52.099Z,18.82
2023-08-15T03:34:25.304Z,18.82
2023-08-15T03:34:58.342Z,18.82
2023-08-15T03:35:31.441Z,18.82
2023-08-15T03:36:04.853Z,18.82
2023-08-15T03:36:37.896Z,18.82
2023-08-15T03:37:10.960Z,18.83
2023-08-15T03:37:44.039Z,18.83
2023-08-15T03:38:17.760Z,18.83
2023-08-15T03:38:50.846Z,18.83
2023-08-15T03:39:23.884Z,18.83
2023-08-15T03:39:56.915Z,18.84
2023-08-15T03:40:30.005Z,18.84
2023-08-15T03:41:06.857Z,18.84
2023-08-15T03:41:39.997Z,18.85
2023-08-15T03:42:13.076Z,18.85
2023-08-15T03:42:46.191Z,18.86
2023-08-15T03:43:19.211Z,18.86
2023-08-15T03:43:52.412Z,18.87
2023-08-15T03:44:25.475Z,18.87
2023-08-15T03:44:58.573Z,18.86
2023-08-15T03:45:31.676Z,18.86
2023-08-15T03:46:05.626Z,18.87
2023-08-15T03:46:39.105Z,18.87
2023-08-15T03:47:12.314Z,18.88
2023-08-15T03:47:45.296Z,18.88
2023-08-15T03:48:18.278Z,18.88
2023-08-15T03:48:51.460Z,18.88
2023-08-15T03:49:24.807Z,18.88
2023-08-15T03:50:01.011Z,18.88
2023-08-15T03:50:38.634Z,18.89
2023-08-15T03:51:15.521Z,18.89
2023-08-15T03:51:56.173Z,18.89
2023-08-15T03:52:29.194Z,18.90
2023-08-15T03:53:02.721Z,18.90
2023-08-15T03:53:35.659Z,18.90
2023-08-15T03:54:09.745Z,18.89
2023-08-15T03:54:42.815Z,18.90
2023-08-15T03:55:15.911Z,18.90
2023-08-15T03:55:50.622Z,18.91
2023-08-15T03:56:23.718Z,18.90
2023-08-15T03:56:56.665Z,18.91
2023-08-15T03:57:29.690Z,18.91
2023-08-15T03:58:02.644Z,18.91
2023-08-15T03:58:35.798Z,18.90
2023-08-15T03:59:08.837Z,18.90
2023-08-15T03:59:41.856Z,18.90
2023-08-15T04:00:15.118Z,18.90
2023-08-15T04:00:48.297Z,18.90
2023-08-15T04:01:21.438Z,18.91
2023-08-15T04:01:57.194Z,18.90
2023-08-15T04:02:31.991Z,18.91
2023-08-15T04:03:05.333Z,18.91
2023-08-15T04:03:38.549Z,18.91
2023-08-15T04:04:12.531Z,18.91
2023-08-15T04:04:45.764Z,18.91
2023-08-15T04:05:22.332Z,18.91
2023-08-15T04:05:55.402Z,18.91
2023-08-15T04:06:28.471Z,18.92
2023-08-15T04:07:01.637Z,18.91
2023-08-15T04:07:34.784Z,18.92
2023-08-15T04:08:07.921Z,18.92
2023-08-15T04:08:41.323Z,18.92
2023-08-15T04:09:14.473Z,18.93
2023-08-15T04:09:47.784Z,18.93
2023-08-15T04:10:20.944Z,18.94
2023-08-15T04:10:54.190Z,18.94
2023-08-15T04:11:27.516Z,18.94
2023-08-15T04:12:00.572Z,18.95
2023-08-15T04:12:34.577Z,18.96
2023-08-15T04:13:11.239Z,18.96
2023-08-15T04:13:44.242Z,18.97
2023-08-15T04:14:17.365Z,18.97
2023-08-15T04:14:50.444Z,18.97
2023-08-15T04:15:23.853Z,18.98
2023-08-15T04:15:57.039Z,18.98
2023-08-15T04:16:30.158Z,18.98
2023-08-15T04:17:04.897Z,18.99
2023-08-15T04:17:38.095Z,18.99
2023-08-15T04:18:11.544Z,18.99
2023-08-15T04:18:44.653Z,19.00
2023-08-15T04:19:17.809Z,19.00
2023-08-15T04:19:50.968Z,19.00
2023-08-15T04:20:24.000Z,19.01
2023-08-15T04:20:57.153Z,19.01
2023-08-15T04:21:30.270Z,19.01
2023-08-15T04:22:03.524Z,19.01
2023-08-15T04:22:37.517Z,19.02
2023-08-15T04:23:10.721Z,19.01
2023-08-15T04:23:43.794Z,19.02
2023-08-15T04:24:17.186Z,19.02
2023-08-15T04:24:50.409Z,19.03
2023-08-15T04:25:23.604Z,19.02
2023-08-15T04:25:56.658Z,19.03
2023-08-15T04:26:29.778Z,19.04
2023-08-15T04:27:02.924Z,19.05
2023-08-15T04:27:36.033Z,19.05
2023-08-15T04:28:09.104Z,19.05
2023-08-15T04:28:42.152Z,19.06
2023-08-15T04:29:15.189Z,19.06
2023-08-15T04:29:48.262Z,19.07
2023-08-15T04:30:22.095Z,19.07
2023-08-15T04:30:55.149Z,19.07
2023-08-15T04:31:28.381Z,19.09
2023-08-15T04:32:01.582Z,19.09
2023-08-15T04:32:34.822Z,19.09
2023-08-15T04:33:08.626Z,19.10
2023-08-15T04:33:41.768Z,19.11
2023-08-15T04:34:14.821Z,19.12
2023-08-15T04:34:49.905Z,19.13
2023-08-15T04:35:23.664Z,19.14
2023-08-15T04:35:56.751Z,19.15
2023-08-15T04:36:29.886Z,19.16
2023-08-15T04:37:02.887Z,19.17
2023-08-15T04:37:35.955Z,19.18
2023-08-15T04:38:09.028Z,19.19
2023-08-15T04:38:42.112Z,19.20
2023-08-15T04:39:15.286Z,19.22
2023-08-15T04:39:48.299Z,19.23
2023-08-15T04:40:32.137Z,19.24
2023-08-15T04:41:06.238Z,19.26
2023-08-15T04:41:39.380Z,19.27
2023-08-15T04:42:12.352Z,19.28
2023-08-15T04:42:45.502Z,19.30
2023-08-15T04:43:19.418Z,19.31
2023-08-15T04:43:52.396Z,19.33
2023-08-15T04:44:25.508Z,19.34
2023-08-15T04:44:58.606Z,19.36
2023-08-15T04:45:31.637Z,19.38
2023-08-15T04:46:04.813Z,19.40
2023-08-15T04:46:38.068Z,19.42
2023-08-15T04:47:11.098Z,19.44
2023-08-15T04:47:44.262Z,19.46
2023-08-15T04:48:17.447Z,19.48
2023-08-15T04:48:50.616Z,19.50
2023-08-15T04:49:23.860Z,19.52
2023-08-15T04:49:57.088Z,19.54
2023-08-15T04:50:30.086Z,19.57
2023-08-15T04:51:03.149Z,19.59
2023-08-15T04:51:36.252Z,19.61
2023-08-15T04:52:09.370Z,19.63
2023-08-15T04:52:42.442Z,19.65
2023-08-15T04:53:15.477Z,19.68
2023-08-15T04:53:48.388Z,19.70
2023-08-15T04:54:21.352Z,19.71
2023-08-15T04:54:54.408Z,19.74
2023-08-15T04:55:27.386Z,19.75
2023-08-15T04:56:00.488Z,19.78
2023-08-15T04:56:33.433Z,19.80
2023-08-15T04:57:07.022Z,19.82
2023-08-15T04:57:40.354Z,19.84
2023-08-15T04:58:13.343Z,19.85
2023-08-15T04:58:46.369Z,19.86
2023-08-15T04:59:20.185Z,19.87
2023-08-15T04:59:53.263Z,19.89
2023-08-15T05:00:26.613Z,19.90
2023-08-15T05:00:59.676Z,19.92
2023-08-15T05:01:32.723Z,19.94
2023-08-15T05:02:05.769Z,19.96
2023-08-15T05:02:41.994Z,19.98
2023-08-15T05:03:15.055Z,20.01
2023-08-15T05:03:48.080Z,20.03
2023-08-15T05:04:21.246Z,20.04
2023-08-15T05:04:54.267Z,20.07
2023-08-15T05:05:27.456Z,20.09
2023-08-15T05:06:00.641Z,20.12
2023-08-15T05:06:33.754Z,20.13
2023-08-15T05:07:06.744Z,20.16
2023-08-15T05:07:40.099Z,20.19
2023-08-15T05:08:13.587Z,20.21
2023-08-15T05:08:46.632Z,20.23
2023-08-15T05:09:19.588Z,20.25
2023-08-15T05:09:52.793Z,20.27
2023-08-15T05:10:26.884Z,20.30
2023-08-15T05:11:03.397Z,20.32
2023-08-15T05:11:36.530Z,20.34
2023-08-15T05:12:10.229Z,20.36
2023-08-15T05:12:43.290Z,20.38
2023-08-15T05:13:16.458Z,20.40
2023-08-15T05:13:49.531Z,20.43
2023-08-15T05:14:23.304Z,20.45
2023-08-15T05:14:56.582Z,20.47
2023-08-15T05:15:30.022Z,20.49
2023-08-15T05:16:03.169Z,20.50
2023-08-15T05:16:36.294Z,20.51
2023-08-15T05:17:09.351Z,20.53
2023-08-15T05:17:42.525Z,20.54
2023-08-15T05:18:18.861Z,20.57
2023-08-15T05:18:51.904Z,20.58
2023-08-15T05:19:25.715Z,20.61
2023-08-15T05:19:58.828Z,20.62
2023-08-15T05:20:33.700Z,20.64
2023-08-15T05:21:06.789Z,20.66
2023-08-15T05:21:41.501Z,20.68
2023-08-15T05:22:15.072Z,20.70
2023-08-15T05:22:49.453Z,20.72
2023-08-15T05:23:22.456Z,20.74
2023-08-15T05:23:55.606Z,20.75
2023-08-15T05:24:28.729Z,20.77
2023-08-15T05:25:01.997Z,20.79
2023-08-15T05:25:35.458Z,20.81
2023-08-15T05:26:08.402Z,20.83
2023-08-15T05:26:41.401Z,20.85
2023-08-15T05:27:14.476Z,20.87
2023-08-15T05:27:47.523Z,20.89
2023-08-15T05:28:20.554Z,20.90
2023-08-15T05:28:53.599Z,20.92
2023-08-15T05:29:26.667Z,20.95
2023-08-15T05:29:59.773Z,20.96
2023-08-15T05:30:35.830Z,20.98
2023-08-15T05:31:09.102Z,21.00
2023-08-15T05:31:42.256Z,21.02
2023-08-15T05:32:15.370Z,21.04
2023-08-15T05:32:48.440Z,21.06
2023-08-15T05:33:21.474Z,21.09
2023-08-15T05:33:54.547Z,21.10
2023-08-15T05:34:27.577Z,21.12
2023-08-15T05:35:00.578Z,21.14
2023-08-15T05:35:34.277Z,21.15
2023-08-15T05:36:07.232Z,21.18
2023-08-15T05:36:40.215Z,21.20
2023-08-15T05:37:13.232Z,21.21
2023-08-15T05:37:46.198Z,21.23
2023-08-15T05:38:19.327Z,21.25
2023-08-15T05:38:52.373Z,21.28
2023-08-15T05:39:25.388Z,21.30
2023-08-15T05:39:58.470Z,21.31
2023-08-15T05:40:31.805Z,21.33
2023-08-15T05:41:05.011Z,21.35
2023-08-15T05:41:38.027Z,21.36
2023-08-15T05:42:12.125Z,21.38
2023-08-15T05:42:45.202Z,21.40
2023-08-15T05:43:18.401Z,21.42
2023-08-15T05:43:51.607Z,21.44
2023-08-15T05:44:24.919Z,21.46
2023-08-15T05:44:58.017Z,21.49
2023-08-15T05:45:31.158Z,21.50
2023-08-15T05:46:04.277Z,21.52
2023-08-15T05:46:37.339Z,21.53
2023-08-15T05:47:10.504Z,21.55
2023-08-15T05:47:43.610Z,21.57
2023-08-15T05:48:16.816Z,21.59
2023-08-15T05:48:49.863Z,21.61
2023-08-15T05:49:23.036Z,21.62
2023-08-15T05:49:56.598Z,21.63
2023-08-15T05:50:29.732Z,21.65
2023-08-15T05:51:02.963Z,21.67
2023-08-15T05:51:36.125Z,21.70
2023-08-15T05:52:09.140Z,21.70
2023-08-15T05:52:42.125Z,21.73
2023-08-15T05:53:15.804Z,21.74
2023-08-15T05:53:49.059Z,21.76
2023-08-15T05:54:22.953Z,21.77
2023-08-15T05:54:56.526Z,21.80
2023-08-15T05:55:29.642Z,21.81
2023-08-15T05:56:02.950Z,21.82
2023-08-15T05:56:35.878Z,21.84
2023-08-15T05:57:08.968Z,21.85
2023-08-15T05:57:41.950Z,21.87
2023-08-15T05:58:16.217Z,21.89
2023-08-15T05:58:49.555Z,21.91
2023-08-15T05:59:22.769Z,21.93
2023-08-15T05:59:56.017Z,21.94
2023-08-15T06:00:29.134Z,21.95
2023-08-15T06:01:02.288Z,21.97
2023-08-15T06:01:35.415Z,21.98
2023-08-15T06:02:08.811Z,21.98
2023-08-15T06:02:42.103Z,22.00
2023-08-15T06:03:15.788Z,22.01
2023-08-15T06:03:53.097Z,22.02
2023-08-15T06:04:26.682Z,22.05
2023-08-15T06:04:59.798Z,22.06
2023-08-15T06:05:32.975Z,22.08
2023-08-15T06:06:07.031Z,22.10
2023-08-15T06:06:45.253Z,22.11
2023-08-15T06:07:18.381Z,22.14
2023-08-15T06:07:51.837Z,22.16
2023-08-15T06:08:25.912Z,22.18
2023-08-15T06:08:59.439Z,22.20
2023-08-15T06:09:32.756Z,22.22
2023-08-15T06:10:06.886Z,22.24
2023-08-15T06:10:40.539Z,22.25
2023-08-15T06:11:13.646Z,22.28
2023-08-15T06:11:47.190Z,22.29
2023-08-15T06:12:20.294Z,22.31
2023-08-15T06:12:53.633Z,22.33
2023-08-15T06:13:26.781Z,22.35
2023-08-15T06:13:59.904Z,22.36
2023-08-15T06:14:33.856Z,22.39
2023-08-15T06:15:07.272Z,22.41
2023-08-15T06:15:40.183Z,22.42
2023-08-15T06:16:14.110Z,22.44
2023-08-15T06:16:48.338Z,22.46
2023-08-15T06:17:21.794Z,22.49
2023-08-15T06:17:55.156Z,22.51
2023-08-15T06:18:28.200Z,22.53
2023-08-15T06:19:02.360Z,22.55
2023-08-15T06:19:35.453Z,22.58
2023-08-15T06:20:08.768Z,22.59
2023-08-15T06:20:41.920Z,22.60
2023-08-15T06:21:15.068Z,22.61
2023-08-15T06:21:48.274Z,22.62
2023-08-15T06:22:21.513Z,22.64
2023-08-15T06:22:54.687Z,22.65
2023-08-15T06:23:27.948Z,22.66
2023-08-15T06:24:01.218Z,22.67
2023-08-15T06:24:34.338Z,22.69
2023-08-15T06:25:07.879Z,22.70
2023-08-15T06:25:42.329Z,22.72
2023-08-15T06:26:15.477Z,22.73
2023-08-15T06:26:49.058Z,22.75
2023-08-15T06:27:22.362Z,22.77
2023-08-15T06:27:55.779Z,22.79
2023-08-15T06:28:28.766Z,22.81
2023-08-15T06:29:01.766Z,22.84
2023-08-15T06:29:35.078Z,22.85
2023-08-15T06:30:08.455Z,22.88
2023-08-15T06:30:42.440Z,22.89
2023-08-15T06:31:15.710Z,22.92
2023-08-15T06:31:48.786Z,22.94
2023-08-15T06:32:28.663Z,22.96
2023-08-15T06:33:01.869Z,22.98
2023-08-15T06:33:34.926Z,23.01
2023-08-15T06:34:08.853Z,23.02
2023-08-15T06:34:41.840Z,23.04
2023-08-15T06:35:14.990Z,23.06
2023-08-15T06:35:48.166Z,23.08
2023-08-15T06:36:23.355Z,23.11
2023-08-15T06:36:56.883Z,23.12
2023-08-15T06:37:29.866Z,23.14
2023-08-15T06:38:02.970Z,23.17
2023-08-15T06:38:36.164Z,23.19
2023-08-15T06:39:09.596Z,23.21
2023-08-15T06:39:42.876Z,23.22
2023-08-15T06:40:16.260Z,23.24
2023-08-15T06:40:49.968Z,23.26
2023-08-15T06:41:23.025Z,23.28
2023-08-15T06:41:56.176Z,23.30
2023-08-15T06:42:29.181Z,23.32
2023-08-15T06:43:02.239Z,23.34
2023-08-15T06:43:35.547Z,23.35
2023-08-15T06:44:08.925Z,23.38
2023-08-15T06:44:45.037Z,23.40
2023-08-15T06:45:20.273Z,23.42
2023-08-15T06:45:53.332Z,23.43
2023-08-15T06:46:26.447Z,23.46
2023-08-15T06:46:59.521Z,23.47
2023-08-15T06:47:32.811Z,23.49
2023-08-15T06:48:07.050Z,23.50
2023-08-15T06:48:40.187Z,23.52
2023-08-15T06:49:13.293Z,23.54
2023-08-15T06:49:46.509Z,23.55
2023-08-15T06:50:20.241Z,23.58
2023-08-15T06:50:53.573Z,23.59
2023-08-15T06:51:26.593Z,23.60
2023-08-15T06:51:59.610Z,23.62
2023-08-15T06:52:32.740Z,23.63
2023-08-15T06:53:05.681Z,23.65
2023-08-15T06:53:41.617Z,23.67
2023-08-15T06:54:14.565Z,23.68
2023-08-15T06:54:47.737Z,23.70
2023-08-15T06:55:20.809Z,23.72
2023-08-15T06:55:53.939Z,23.73
2023-08-15T06:56:27.059Z,23.75
2023-08-15T06:57:00.198Z,23.76
2023-08-15T06:57:33.931Z,23.77
2023-08-15T06:58:07.019Z,23.78
2023-08-15T06:58:40.413Z,23.79
2023-08-15T06:59:14.028Z,23.81
2023-08-15T06:59:47.110Z,23.82
2023-08-15T07:00:21.161Z,23.83
2023-08-15T07:00:55.437Z,23.85
2023-08-15T07:01:28.643Z,23.87
2023-08-15T07:02:02.306Z,23.88
2023-08-15T07:02:35.574Z,23.90
2023-08-15T07:03:08.862Z,23.92
2023-08-15T07:03:42.105Z,23.94
2023-08-15T07:04:15.298Z,23.96
2023-08-15T07:04:50.173Z,23.98
2023-08-15T07:05:23.276Z,24.01
2023-08-15T07:05:56.347Z,24.02
2023-08-15T07:06:29.510Z,24.04
2023-08-15T07:07:02.640Z,24.05
2023-08-15T07:07:36.290Z,24.06
2023-08-15T07:08:09.469Z,24.07
2023-08-15T07:08:43.473Z,24.09
2023-08-15T07:09:16.696Z,24.10
2023-08-15T07:09:50.504Z,24.12
2023-08-15T07:10:23.662Z,24.14
2023-08-15T07:10:59.775Z,24.16
2023-08-15T07:11:33.016Z,24.18
2023-08-15T07:12:09.275Z,24.20
2023-08-15T07:12:42.745Z,24.22
2023-08-15T07:13:16.635Z,24.24
2023-08-15T07:13:49.673Z,24.26